createdAt,value
2023-01-13T00:01:23.178Z,9.80
2023-01-13T00:03:35.938Z,10.20
2023-01-13T00:05:47.784Z,8.80
2023-01-13T00:08:00.091Z,9.30
2023-01-13T00:10:11.876Z,8.40
2023-01-13T00:12:24.278Z,8.20
2023-01-13T00:14:36.584Z,8.00
2023-01-13T00:16:48.164Z,8.20
2023-01-13T00:19:00.364Z,8.30
2023-01-13T00:21:19.829Z,8.00
2023-01-13T00:23:33.816Z,8.00
2023-01-13T00:25:45.973Z,8.60
2023-01-13T00:27:57.865Z,7.80
2023-01-13T00:30:10.220Z,8.50
2023-01-13T00:32:22.263Z,7.70
2023-01-13T00:34:33.916Z,7.80
2023-01-13T00:36:45.857Z,7.30
2023-01-13T00:38:59.167Z,7.60
2023-01-13T00:41:13.315Z,7.30
2023-01-13T00:43:26.942Z,7.10
2023-01-13T00:45:38.943Z,7.80
2023-01-13T00:47:50.633Z,7.10
2023-01-13T00:50:02.724Z,7.20
2023-01-13T00:52:14.516Z,7.30
2023-01-13T00:54:26.632Z,7.60
2023-01-13T00:56:40.554Z,6.80
2023-01-13T00:58:53.687Z,7.70
2023-01-13T01:01:08.971Z,7.40
2023-01-13T01:03:20.942Z,7.10
2023-01-13T01:05:34.212Z,7.20
2023-01-13T01:07:46.467Z,7.60
2023-01-13T01:09:58.154Z,7.70
2023-01-13T01:12:10.252Z,7.10
2023-01-13T01:14:22.302Z,7.50
2023-01-13T01:16:35.143Z,6.80
2023-01-13T01:18:49.519Z,7.90
2023-01-13T01:21:02.123Z,7.00
2023-01-13T01:23:13.809Z,7.80
2023-01-13T01:25:25.496Z,7.20
2023-01-13T01:27:37.287Z,7.80
2023-01-13T01:29:48.975Z,8.50
2023-01-13T01:32:00.763Z,8.10
2023-01-13T01:34:12.457Z,7.80
2023-01-13T01:36:30.125Z,8.10
2023-01-13T01:40:54.480Z,7.10
2023-01-13T01:43:34.837Z,6.60
2023-01-13T01:45:46.838Z,7.10
2023-01-13T01:48:05.943Z,6.30
2023-01-13T01:50:19.592Z,6.50
2023-01-13T01:52:40.021Z,6.90
2023-01-13T01:55:14.136Z,6.70
2023-01-13T01:57:55.724Z,6.90
2023-01-13T02:00:08.741Z,7.00
2023-01-13T02:02:27.671Z,6.50
2023-01-13T02:04:50.547Z,7.00
2023-01-13T02:07:04.030Z,6.40
2023-01-13T02:09:16.146Z,6.80
2023-01-13T02:11:49.058Z,5.90
2023-01-13T02:14:01.156Z,6.40
2023-01-13T02:16:21.284Z,6.80
2023-01-13T02:18:52.179Z,6.30
2023-01-13T02:21:25.783Z,6.20
2023-01-13T02:24:26.313Z,6.30
2023-01-13T02:26:46.192Z,6.10
2023-01-13T02:29:54.815Z,6.50
2023-01-13T02:34:41.742Z,6.20
2023-01-13T02:37:03.984Z,6.30
2023-01-13T02:39:36.655Z,6.90
2023-01-13T02:42:15.788Z,6.10
2023-01-13T02:44:44.268Z,7.30
2023-01-13T02:47:20.682Z,6.80
2023-01-13T02:50:13.494Z,6.10
2023-01-13T02:52:46.266Z,5.70
2023-01-13T02:55:03.901Z,6.80
2023-01-13T02:57:18.448Z,5.90
2023-01-13T02:59:31.465Z,6.50
2023-01-13T03:01:43.653Z,7.90
2023-01-13T03:03:55.675Z,6.10
2023-01-13T03:06:37.912Z,5.70
2023-01-13T03:08:55.082Z,5.50
2023-01-13T03:11:13.137Z,6.40
2023-01-13T03:13:38.119Z,6.40
2023-01-13T03:15:58.615Z,5.70
2023-01-13T03:18:28.951Z,5.70
2023-01-13T03:20:48.384Z,5.80
2023-01-13T03:23:33.188Z,5.80
2023-01-13T03:25:56.647Z,5.40
2023-01-13T03:28:19.765Z,5.50
2023-01-13T03:30:48.181Z,5.50
2023-01-13T03:33:06.536Z,5.40
2023-01-13T03:35:35.307Z,6.00
2023-01-13T03:37:53.696Z,5.60
2023-01-13T03:40:20.901Z,6.00
2023-01-13T03:42:36.883Z,5.80
2023-01-13T03:44:48.783Z,5.80
2023-01-13T03:47:21.063Z,5.80
2023-01-13T03:49:54.039Z,5.50
2023-01-13T03:52:12.341Z,5.30
2023-01-13T03:54:28.418Z,5.70
2023-01-13T03:56:47.641Z,5.70
2023-01-13T03:59:02.821Z,5.70
2023-01-13T04:01:19.307Z,5.20
2023-01-13T04:04:07.635Z,5.00
2023-01-13T04:06:47.608Z,5.50
2023-01-13T04:09:13.216Z,5.80
2023-01-13T04:11:43.127Z,6.20
2023-01-13T04:13:57.606Z,10.60
2023-01-13T04:16:11.961Z,10.80
2023-01-13T04:18:28.026Z,9.20
2023-01-13T04:20:41.555Z,7.40
2023-01-13T04:22:53.344Z,7.30
2023-01-13T04:25:05.748Z,7.70
2023-01-13T04:27:17.843Z,6.40
2023-01-13T04:29:29.632Z,7.10
2023-01-13T04:31:41.321Z,6.40
2023-01-13T04:33:53.212Z,6.80
2023-01-13T04:36:06.034Z,6.10
2023-01-13T04:38:21.316Z,7.20
2023-01-13T04:40:33.629Z,8.50
2023-01-13T04:42:45.599Z,7.00
2023-01-13T04:44:57.595Z,8.80
2023-01-13T04:47:09.386Z,7.70
2023-01-13T04:49:21.496Z,7.70
2023-01-13T04:51:35.005Z,7.30
2023-01-13T04:53:47.006Z,7.80
2023-01-13T04:55:58.587Z,7.40
2023-01-13T04:58:11.089Z,7.90
2023-01-13T05:00:23.716Z,7.50
2023-01-13T05:02:35.595Z,8.10
2023-01-13T05:04:48.371Z,9.40
2023-01-13T05:07:00.301Z,8.50
2023-01-13T05:09:13.596Z,9.60
2023-01-13T05:11:43.977Z,9.10
2023-01-13T05:14:14.893Z,17.90
2023-01-13T05:16:45.731Z,15.20
2023-01-13T05:18:57.625Z,12.30
2023-01-13T05:21:29.379Z,27.50
2023-01-13T05:24:17.110Z,22.40
2023-01-13T05:26:28.801Z,11.40
2023-01-13T05:28:40.791Z,7.20
2023-01-13T05:30:52.763Z,7.10
2023-01-13T05:33:05.294Z,14.10
2023-01-13T05:35:17.398Z,13.00
2023-01-13T05:37:29.285Z,13.60
2023-01-13T05:40:00.846Z,12.90
2023-01-13T05:42:31.776Z,9.50
2023-01-13T05:44:43.668Z,13.20
2023-01-13T05:46:55.569Z,12.50
2023-01-13T05:49:07.657Z,8.50
2023-01-13T05:51:22.727Z,10.40
2023-01-13T05:53:35.034Z,9.40
2023-01-13T05:55:47.241Z,8.80
2023-01-13T05:57:59.332Z,7.90
2023-01-13T06:00:12.247Z,11.50
2023-01-13T06:02:25.155Z,30.90
2023-01-13T06:04:37.456Z,37.30
2023-01-13T06:06:49.964Z,64.30
2023-01-13T06:09:01.560Z,51.30
2023-01-13T06:11:14.677Z,27.00
2023-01-13T06:13:26.977Z,24.10
2023-01-13T06:16:06.898Z,14.60
2023-01-13T06:18:24.656Z,12.40
2023-01-13T06:20:38.699Z,11.50
2023-01-13T06:22:55.523Z,16.90
2023-01-13T06:25:19.888Z,10.50
2023-01-13T06:27:31.957Z,17.70
2023-01-13T06:29:43.982Z,22.90
2023-01-13T06:31:56.486Z,41.70
2023-01-13T06:34:12.999Z,33.70
2023-01-13T06:36:48.971Z,52.80
2023-01-13T06:39:03.188Z,38.10
2023-01-13T06:41:16.011Z,45.60
2023-01-13T06:43:28.305Z,52.70
2023-01-13T06:45:45.700Z,47.90
2023-01-13T06:47:59.716Z,34.00
2023-01-13T06:50:11.984Z,23.50
2023-01-13T06:52:24.587Z,19.20
2023-01-13T06:54:36.371Z,19.00
2023-01-13T06:56:49.286Z,13.80
2023-01-13T06:59:00.865Z,12.00
2023-01-13T07:01:12.840Z,12.20
2023-01-13T07:03:24.867Z,12.80
2023-01-13T07:05:36.957Z,24.50
2023-01-13T07:07:48.643Z,47.40
2023-01-13T07:10:00.741Z,37.70
2023-01-13T07:12:12.737Z,24.90
2023-01-13T07:14:43.775Z,16.50
2023-01-13T07:16:55.774Z,11.50
2023-01-13T07:19:07.456Z,7.60
2023-01-13T07:21:20.270Z,9.50
2023-01-13T07:23:35.090Z,8.70
2023-01-13T07:25:46.928Z,9.00
2023-01-13T07:27:58.818Z,7.00
2023-01-13T07:30:11.579Z,7.20
2023-01-13T07:32:23.432Z,7.50
2023-01-13T07:34:35.618Z,10.80
2023-01-13T07:36:47.423Z,12.70
2023-01-13T07:38:59.413Z,41.10
2023-01-13T07:41:34.026Z,23.40
2023-01-13T07:43:45.926Z,13.80
2023-01-13T07:46:04.788Z,14.90
2023-01-13T07:48:16.873Z,10.50
2023-01-13T07:50:28.869Z,8.30
2023-01-13T07:52:40.874Z,11.80
2023-01-13T07:54:52.656Z,12.10
2023-01-13T07:57:04.853Z,10.60
2023-01-13T07:59:16.964Z,106.20
2023-01-13T08:01:29.345Z,41.10
2023-01-13T08:03:41.654Z,17.20
2023-01-13T08:05:53.663Z,13.20
2023-01-13T08:08:06.264Z,11.10
2023-01-13T08:10:17.946Z,14.30
2023-01-13T08:12:52.198Z,11.50
2023-01-13T08:15:10.275Z,17.50
2023-01-13T08:17:22.509Z,11.80
2023-01-13T08:19:34.905Z,12.30
2023-01-13T08:21:46.905Z,8.90
2023-01-13T08:23:58.999Z,6.90
2023-01-13T08:26:14.746Z,7.60
2023-01-13T08:28:26.677Z,7.70
2023-01-13T08:30:39.287Z,7.50
2023-01-13T08:32:51.072Z,8.70
2023-01-13T08:35:03.374Z,19.80
2023-01-13T08:37:15.268Z,36.30
2023-01-13T08:39:27.263Z,107.20
2023-01-13T08:41:58.736Z,44.90
2023-01-13T08:44:11.015Z,99.70
2023-01-13T08:46:23.253Z,68.80
2023-01-13T08:48:35.641Z,31.30
2023-01-13T08:50:47.922Z,28.10
2023-01-13T08:53:00.524Z,24.20
2023-01-13T08:55:12.421Z,23.20
2023-01-13T08:57:24.032Z,24.20
2023-01-13T08:59:36.204Z,16.90
2023-01-13T09:01:48.122Z,17.00
2023-01-13T09:04:00.073Z,16.80
2023-01-13T09:06:12.315Z,17.20
2023-01-13T09:08:24.725Z,20.00
2023-01-13T09:10:36.973Z,25.50
2023-01-13T09:13:07.630Z,30.20
2023-01-13T09:15:19.831Z,24.80
2023-01-13T09:17:31.722Z,79.20
2023-01-13T09:19:43.512Z,143.00
2023-01-13T09:21:56.665Z,151.20
2023-01-13T09:24:09.139Z,75.90
2023-01-13T09:26:21.778Z,54.20
2023-01-13T09:28:33.738Z,18.10
2023-01-13T09:30:46.010Z,13.20
2023-01-13T09:33:17.912Z,11.10
2023-01-13T09:35:29.798Z,9.60
2023-01-13T09:37:41.943Z,10.30
2023-01-13T09:39:53.889Z,7.80
2023-01-13T09:42:37.117Z,11.10
2023-01-13T09:45:04.878Z,8.60
2023-01-13T09:47:29.469Z,7.60
2023-01-13T09:49:43.108Z,8.40
2023-01-13T09:52:02.477Z,9.70
2023-01-13T09:54:32.465Z,17.10
2023-01-13T09:56:44.481Z,13.60
2023-01-13T09:58:56.272Z,19.70
2023-01-13T10:01:11.464Z,23.50
2023-01-13T10:03:29.070Z,15.60
2023-01-13T10:05:47.434Z,14.90
2023-01-13T10:08:05.606Z,13.50
2023-01-13T10:10:36.591Z,55.70
2023-01-13T10:13:09.272Z,43.30
2023-01-13T10:15:26.021Z,25.30
2023-01-13T10:17:53.483Z,24.90
2023-01-13T10:20:32.363Z,32.80
2023-01-13T10:23:11.896Z,35.70
2023-01-13T10:25:43.046Z,27.20
2023-01-13T10:28:01.616Z,20.40
2023-01-13T10:30:31.570Z,20.40
2023-01-13T10:32:50.056Z,22.40
2023-01-13T10:35:02.473Z,19.00
2023-01-13T10:37:22.466Z,16.70
2023-01-13T10:39:44.166Z,13.30
2023-01-13T10:42:07.614Z,14.10
2023-01-13T10:44:19.827Z,19.00
2023-01-13T10:46:49.853Z,12.90
2023-01-13T10:49:15.052Z,14.60
2023-01-13T10:51:31.370Z,14.10
2023-01-13T10:53:51.535Z,14.10
2023-01-13T10:56:04.857Z,54.00
2023-01-13T10:58:19.716Z,57.10
2023-01-13T11:00:35.039Z,53.40
2023-01-13T11:03:18.426Z,57.70
2023-01-13T11:05:30.319Z,69.00
2023-01-13T11:07:50.523Z,117.90
2023-01-13T11:10:27.382Z,75.50
2023-01-13T11:12:54.840Z,54.20
2023-01-13T11:15:14.038Z,41.70
2023-01-13T11:17:38.702Z,29.50
2023-01-13T11:20:00.318Z,16.30
2023-01-13T11:22:21.216Z,29.10
2023-01-13T11:24:51.005Z,26.50
2023-01-13T11:27:44.913Z,23.50
2023-01-13T11:30:15.333Z,31.30
2023-01-13T11:32:35.250Z,32.40
2023-01-13T11:34:55.281Z,29.20
2023-01-13T11:37:19.267Z,34.40
2023-01-13T11:39:55.539Z,30.50
2023-01-13T11:42:21.711Z,21.00
2023-01-13T11:44:46.462Z,25.70
2023-01-13T11:46:58.473Z,32.90
2023-01-13T11:49:22.567Z,45.00
2023-01-13T11:51:53.262Z,48.30
2023-01-13T11:54:34.246Z,51.20
2023-01-13T11:57:24.320Z,103.60
2023-01-13T12:00:03.149Z,164.50
2023-01-13T12:02:48.972Z,98.00
2023-01-13T12:05:15.375Z,154.40
2023-01-13T12:07:54.534Z,140.20
2023-01-13T12:10:18.124Z,68.00
2023-01-13T12:13:01.729Z,66.20
2023-01-13T12:15:52.822Z,48.40
2023-01-13T12:18:11.874Z,47.90
2023-01-13T12:20:24.894Z,36.10
2023-01-13T12:22:37.910Z,45.70
2023-01-13T12:24:57.916Z,36.70
2023-01-13T12:27:22.275Z,34.70
2023-01-13T12:29:36.834Z,38.60
2023-01-13T12:31:50.650Z,30.70
2023-01-13T12:34:27.245Z,28.30
2023-01-13T12:36:55.832Z,18.00
2023-01-13T12:39:45.712Z,22.30
2023-01-13T12:42:30.372Z,28.60
2023-01-13T12:45:11.189Z,19.60
2023-01-13T12:47:35.288Z,38.30
2023-01-13T12:49:47.517Z,26.20
2023-01-13T12:52:13.877Z,31.40
2023-01-13T12:54:32.297Z,26.80
2023-01-13T12:56:45.520Z,27.90
2023-01-13T12:59:19.628Z,31.20
2023-01-13T13:01:36.263Z,32.60
2023-01-13T13:04:08.103Z,36.00
2023-01-13T13:06:24.184Z,14.20
2023-01-13T13:08:51.232Z,16.10
2023-01-13T13:11:40.305Z,22.50
2023-01-13T13:13:52.393Z,16.00
2023-01-13T13:16:47.868Z,12.30
2023-01-13T13:19:17.724Z,9.10
2023-01-13T13:22:08.116Z,17.80
2023-01-13T13:24:20.008Z,27.30
2023-01-13T13:26:37.063Z,38.10
2023-01-13T13:29:07.652Z,32.20
2023-01-13T13:31:24.361Z,74.20
2023-01-13T13:33:49.970Z,60.60
2023-01-13T13:36:37.342Z,61.10
2023-01-13T13:39:24.312Z,54.60
2023-01-13T13:41:56.173Z,37.30
2023-01-13T13:44:46.052Z,21.50
2023-01-13T13:47:02.281Z,19.20
2023-01-13T13:49:20.295Z,17.50
2023-01-13T13:51:46.412Z,48.40
2023-01-13T13:53:59.688Z,19.30
2023-01-13T13:56:26.693Z,21.90
2023-01-13T13:58:38.674Z,33.30
2023-01-13T14:00:51.280Z,32.20
2023-01-13T14:03:21.196Z,21.50
2023-01-13T14:05:35.239Z,17.50
2023-01-13T14:07:50.113Z,14.40
2023-01-13T14:10:02.267Z,15.20
2023-01-13T14:12:20.176Z,22.50
2023-01-13T14:14:32.188Z,96.70
2023-01-13T14:16:44.297Z,43.90
2023-01-13T14:18:56.628Z,79.40
2023-01-13T14:21:25.676Z,43.40
2023-01-13T14:23:37.491Z,48.10
2023-01-13T14:25:51.197Z,56.70
2023-01-13T14:28:17.430Z,38.50
2023-01-13T14:30:29.519Z,67.50
2023-01-13T14:32:42.124Z,50.50
2023-01-13T14:34:59.296Z,36.70
2023-01-13T14:37:39.388Z,44.20
2023-01-13T14:39:51.398Z,35.00
2023-01-13T14:42:03.887Z,27.70
2023-01-13T14:44:25.974Z,28.90
2023-01-13T14:46:43.158Z,33.20
2023-01-13T14:49:01.345Z,24.50
2023-01-13T14:51:21.661Z,15.80
2023-01-13T14:53:46.903Z,64.70
2023-01-13T14:55:59.166Z,57.50
2023-01-13T14:58:28.710Z,53.60
2023-01-13T15:00:40.224Z,67.70
2023-01-13T15:02:58.248Z,104.20
2023-01-13T15:05:19.297Z,61.20
2023-01-13T15:07:32.539Z,41.30
2023-01-13T15:09:45.597Z,59.20
2023-01-13T15:11:58.919Z,47.30
2023-01-13T15:14:11.677Z,48.10
2023-01-13T15:16:27.487Z,33.00
2023-01-13T15:18:41.363Z,28.00
2023-01-13T15:20:53.460Z,24.20
2023-01-13T15:23:06.007Z,16.90
2023-01-13T15:25:19.030Z,14.60
2023-01-13T15:27:32.618Z,21.90
2023-01-13T15:29:45.471Z,23.50
2023-01-13T15:31:57.467Z,17.40
2023-01-13T15:34:12.559Z,17.50
2023-01-13T15:36:31.485Z,11.70
2023-01-13T15:38:43.074Z,11.70
2023-01-13T15:40:55.177Z,11.40
2023-01-13T15:43:25.802Z,26.00
2023-01-13T15:45:56.939Z,30.50
2023-01-13T15:48:08.773Z,29.30
2023-01-13T15:50:21.056Z,28.90
2023-01-13T15:52:33.443Z,23.80
2023-01-13T15:54:46.358Z,20.70
2023-01-13T15:56:58.559Z,20.60
2023-01-13T15:59:21.379Z,20.80
2023-01-13T16:01:33.537Z,19.40
2023-01-13T16:03:45.805Z,12.80
2023-01-13T16:05:58.116Z,10.70
2023-01-13T16:08:21.945Z,14.30
2023-01-13T16:10:34.187Z,10.80
2023-01-13T16:12:46.590Z,8.60
2023-01-13T16:14:59.609Z,10.40
2023-01-13T16:17:17.102Z,10.00
2023-01-13T16:19:29.138Z,12.40
2023-01-13T16:21:40.826Z,9.60
2023-01-13T16:23:53.953Z,13.50
2023-01-13T16:26:11.484Z,8.30
2023-01-13T16:28:28.252Z,10.20
2023-01-13T16:30:40.699Z,12.70
2023-01-13T16:32:53.628Z,13.60
2023-01-13T16:35:05.927Z,12.10
2023-01-13T16:37:21.189Z,11.10
2023-01-13T16:39:33.616Z,14.60
2023-01-13T16:41:45.652Z,36.30
2023-01-13T16:43:57.299Z,26.50
2023-01-13T16:46:27.940Z,28.90
2023-01-13T16:48:39.934Z,22.60
2023-01-13T16:50:51.932Z,20.00
2023-01-13T16:53:04.853Z,22.50
2023-01-13T16:55:16.665Z,16.40
2023-01-13T16:57:29.045Z,13.70
2023-01-13T16:59:40.837Z,18.10
2023-01-13T17:01:53.588Z,12.10
2023-01-13T17:04:07.001Z,14.50
2023-01-13T17:06:24.717Z,11.00
2023-01-13T17:08:36.576Z,13.50
2023-01-13T17:10:50.722Z,12.00
2023-01-13T17:13:14.713Z,15.70
2023-01-13T17:15:27.905Z,15.10
2023-01-13T17:17:43.299Z,16.80
2023-01-13T17:19:55.372Z,15.10
2023-01-13T17:22:07.108Z,14.80
2023-01-13T17:24:19.623Z,19.90
2023-01-13T17:26:37.458Z,28.00
2023-01-13T17:31:01.131Z,17.10
2023-01-13T17:33:13.533Z,18.20
2023-01-13T17:35:25.540Z,19.50
2023-01-13T17:37:37.299Z,30.70
2023-01-13T17:39:51.094Z,35.00
2023-01-13T17:42:02.839Z,37.00
2023-01-13T17:44:15.761Z,31.20
2023-01-13T17:46:27.968Z,30.80
2023-01-13T17:48:40.372Z,34.40
2023-01-13T17:50:53.433Z,28.50
2023-01-13T17:53:05.583Z,31.10
2023-01-13T17:55:20.556Z,26.50
2023-01-13T17:57:32.644Z,18.50
2023-01-13T17:59:47.095Z,17.80
2023-01-13T18:01:59.247Z,17.90
2023-01-13T18:04:16.934Z,16.60
2023-01-13T18:06:29.478Z,18.50
2023-01-13T18:08:41.435Z,16.20
2023-01-13T18:10:54.432Z,15.10
2023-01-13T18:13:08.067Z,13.90
2023-01-13T18:15:20.063Z,14.20
2023-01-13T18:17:32.157Z,21.50
2023-01-13T18:20:14.580Z,28.90
2023-01-13T18:22:46.839Z,35.80
2023-01-13T18:25:17.679Z,16.60
2023-01-13T18:27:35.893Z,15.00
2023-01-13T18:29:53.309Z,13.70
2023-01-13T18:32:10.208Z,14.50
2023-01-13T18:34:26.374Z,15.80
2023-01-13T18:36:43.234Z,12.80
2023-01-13T18:38:58.782Z,44.10
2023-01-13T18:41:32.527Z,85.70
2023-01-13T18:43:47.877Z,80.50
2023-01-13T18:46:03.510Z,46.90
2023-01-13T18:48:18.826Z,25.00
2023-01-13T18:50:38.464Z,17.10
2023-01-13T18:52:55.038Z,14.50
2023-01-13T18:55:11.682Z,16.70
2023-01-13T18:57:27.384Z,16.70
2023-01-13T18:59:42.482Z,20.90
2023-01-13T19:01:59.264Z,21.40
2023-01-13T19:04:17.649Z,22.10
2023-01-13T19:06:34.926Z,21.20
2023-01-13T19:08:54.008Z,20.10
2023-01-13T19:11:09.591Z,20.60
2023-01-13T19:13:30.938Z,19.50
2023-01-13T19:15:47.320Z,19.10
2023-01-13T19:18:15.587Z,17.90
2023-01-13T19:22:55.057Z,21.70
2023-01-13T19:25:15.319Z,19.20
2023-01-13T19:27:31.418Z,21.80
2023-01-13T19:29:52.961Z,19.40
2023-01-13T19:32:08.355Z,21.20
2023-01-13T19:34:24.393Z,20.20
2023-01-13T19:36:36.398Z,17.50
2023-01-13T19:38:49.949Z,17.00
2023-01-13T19:41:32.850Z,16.00
2023-01-13T19:44:03.158Z,15.60
2023-01-13T19:46:16.239Z,15.30
2023-01-13T19:48:28.025Z,16.40
2023-01-13T19:50:40.580Z,15.90
2023-01-13T19:52:52.368Z,15.30
2023-01-13T19:55:04.219Z,15.80
2023-01-13T19:57:15.954Z,14.90
2023-01-13T19:59:32.758Z,16.20
2023-01-13T20:01:44.898Z,13.20
2023-01-13T20:04:02.998Z,14.70
2023-01-13T20:06:14.891Z,12.60
2023-01-13T20:08:26.779Z,13.50
2023-01-13T20:10:39.193Z,11.70
2023-01-13T20:12:52.024Z,13.70
2023-01-13T20:15:05.993Z,13.80
2023-01-13T20:17:20.353Z,13.50
2023-01-13T20:19:32.593Z,13.20
2023-01-13T20:21:44.895Z,14.30
2023-01-13T20:23:57.093Z,13.20
2023-01-13T20:26:09.028Z,13.90
2023-01-13T20:28:20.879Z,12.50
2023-01-13T20:30:32.875Z,12.30
2023-01-13T20:32:45.185Z,11.50
2023-01-13T20:34:57.168Z,11.40
2023-01-13T20:37:08.958Z,10.00
2023-01-13T20:39:23.206Z,9.00
2023-01-13T20:41:55.407Z,9.20
2023-01-13T20:44:07.629Z,11.00
2023-01-13T20:46:20.307Z,17.40
2023-01-13T20:48:31.971Z,11.90
2023-01-13T20:50:44.478Z,10.10
2023-01-13T20:52:56.486Z,10.90
2023-01-13T20:55:09.697Z,9.80
2023-01-13T20:57:21.692Z,7.90
2023-01-13T20:59:34.205Z,8.60
2023-01-13T21:01:46.055Z,7.90
2023-01-13T21:04:00.241Z,6.90
2023-01-13T21:06:12.262Z,6.40
2023-01-13T21:08:24.331Z,7.00
2023-01-13T21:10:36.528Z,6.80
2023-01-13T21:13:09.513Z,5.70
2023-01-13T21:15:22.911Z,6.70
2023-01-13T21:17:53.435Z,7.20
2023-01-13T21:20:11.293Z,7.90
2023-01-13T21:22:23.193Z,7.10
2023-01-13T21:24:34.883Z,6.20
2023-01-13T21:26:48.825Z,7.70
2023-01-13T21:29:02.352Z,7.50
2023-01-13T21:31:14.031Z,6.20
2023-01-13T21:33:26.443Z,7.40
2023-01-13T21:35:41.719Z,7.00
2023-01-13T21:37:54.375Z,7.10
2023-01-13T21:40:07.937Z,7.80
2023-01-13T21:42:38.491Z,6.80
2023-01-13T21:45:08.833Z,7.10
2023-01-13T21:47:40.366Z,7.00
2023-01-13T21:49:52.391Z,7.20
2023-01-13T21:52:06.411Z,7.00
2023-01-13T21:54:18.655Z,6.50
2023-01-13T21:56:30.253Z,7.60
2023-01-13T21:58:41.649Z,7.60
2023-01-13T22:00:54.224Z,6.30
2023-01-13T22:03:08.235Z,6.50
2023-01-13T22:05:22.616Z,7.60
2023-01-13T22:07:35.484Z,7.90
2023-01-13T22:09:47.278Z,7.10
2023-01-13T22:12:00.612Z,6.40
2023-01-13T22:14:14.032Z,6.70
2023-01-13T22:16:26.246Z,6.60
2023-01-13T22:18:38.547Z,5.40
2023-01-13T22:20:50.689Z,6.10
2023-01-13T22:23:02.929Z,6.50
2023-01-13T22:25:16.873Z,6.20
2023-01-13T22:27:30.814Z,6.50
2023-01-13T22:29:42.911Z,6.30
2023-01-13T22:31:54.745Z,5.80
2023-01-13T22:34:06.385Z,7.20
2023-01-13T22:36:18.600Z,9.00
2023-01-13T22:38:31.401Z,7.00
2023-01-13T22:40:43.396Z,7.50
2023-01-13T22:42:55.190Z,7.10
2023-01-13T22:45:10.799Z,7.00
2023-01-13T22:47:22.965Z,6.30
2023-01-13T22:49:34.957Z,6.00
2023-01-13T22:51:47.258Z,6.30
2023-01-13T22:53:59.256Z,6.60
2023-01-13T22:56:20.355Z,7.60
2023-01-13T22:58:32.765Z,7.90
2023-01-13T23:00:44.869Z,7.40
2023-01-13T23:02:56.963Z,7.80
2023-01-13T23:05:08.965Z,9.50
2023-01-13T23:07:20.849Z,6.40
2023-01-13T23:09:32.641Z,8.00
2023-01-13T23:11:46.236Z,6.40
2023-01-13T23:14:04.656Z,6.50
2023-01-13T23:16:21.273Z,7.60
2023-01-13T23:18:34.032Z,6.10
2023-01-13T23:20:46.128Z,7.20
2023-01-13T23:22:59.404Z,5.90
2023-01-13T23:25:11.808Z,6.60
2023-01-13T23:27:24.057Z,7.10
2023-01-13T23:29:35.539Z,5.80
2023-01-13T23:31:47.904Z,5.30
2023-01-13T23:34:00.660Z,5.70
2023-01-13T23:36:19.153Z,10.90
2023-01-13T23:38:31.813Z,6.40
2023-01-13T23:40:45.550Z,4.50
2023-01-13T23:42:57.750Z,5.40
2023-01-13T23:45:10.564Z,7.40
2023-01-13T23:47:22.152Z,6.70
2023-01-13T23:49:33.939Z,5.40
2023-01-13T23:51:45.624Z,5.30
2023-01-13T23:53:59.444Z,5.00
2023-01-13T23:56:14.618Z,5.80
2023-01-13T23:58:27.343Z,5.20
